sensor_id;sensor_type;location;lat;lon;timestamp;P1;durP1;ratioP1;P2;durP2;ratioP2
39694;SDS011;25367;-35.352;149.036;2023-03-14T00:01:52;16.63;;;2.08;;
39694;SDS011;25367;-35.352;149.036;2023-03-14T00:04:21;8.60;;;1.73;;
39694;SDS011;25367;-35.352;149.036;2023-03-14T00:06:51;6.63;;;1.60;;
39694;SDS011;25367;-35.352;149.036;2023-03-14T00:09:23;4.60;;;1.85;;
39694;SDS011;25367;-35.352;149.036;2023-03-14T00:11:53;11.23;;;2.03;;
39694;SDS011;25367;-35.352;149.036;2023-03-14T00:14:24;7.68;;;1.70;;
39694;SDS011;25367;-35.352;149.036;2023-03-14T00:16:54;7.20;;;1.42;;
39694;SDS011;25367;-35.352;149.036;2023-03-14T00:19:23;4.53;;;1.90;;
39694;SDS011;25367;-35.352;149.036;2023-03-14T00:21:53;3.30;;;1.08;;
39694;SDS011;25367;-35.352;149.036;2023-03-14T00:24:25;4.35;;;1.40;;
39694;SDS011;25367;-35.352;149.036;2023-03-14T00:26:55;5.75;;;1.73;;
39694;SDS011;25367;-35.352;149.036;2023-03-14T00:29:24;11.52;;;2.28;;
39694;SDS011;25367;-35.352;149.036;2023-03-14T00:31:54;7.13;;;1.33;;
39694;SDS011;25367;-35.352;149.036;2023-03-14T00:34:26;12.38;;;2.25;;
39694;SDS011;25367;-35.352;149.036;2023-03-14T00:36:57;11.45;;;2.60;;
39694;SDS011;25367;-35.352;149.036;2023-03-14T00:39:28;20.08;;;2.45;;
39694;SDS011;25367;-35.352;149.036;2023-03-14T00:41:58;22.00;;;2.92;;
39694;SDS011;25367;-35.352;149.036;2023-03-14T00:44:29;11.50;;;1.95;;
39694;SDS011;25367;-35.352;149.036;2023-03-14T00:46:58;8.70;;;2.63;;
39694;SDS011;25367;-35.352;149.036;2023-03-14T00:49:28;9.23;;;1.92;;
39694;SDS011;25367;-35.352;149.036;2023-03-14T00:51:58;5.43;;;1.83;;
39694;SDS011;25367;-35.352;149.036;2023-03-14T00:54:30;11.57;;;1.75;;
39694;SDS011;25367;-35.352;149.036;2023-03-14T00:57:00;10.15;;;1.80;;
39694;SDS011;25367;-35.352;149.036;2023-03-14T00:59:30;13.75;;;1.88;;
39694;SDS011;25367;-35.352;149.036;2023-03-14T01:04:34;9.85;;;2.40;;
39694;SDS011;25367;-35.352;149.036;2023-03-14T01:07:05;8.45;;;1.80;;
39694;SDS011;25367;-35.352;149.036;2023-03-14T01:09:38;5.65;;;1.35;;
39694;SDS011;25367;-35.352;149.036;2023-03-14T01:12:09;6.13;;;1.67;;
39694;SDS011;25367;-35.352;149.036;2023-03-14T01:14:40;14.88;;;1.80;;
39694;SDS011;25367;-35.352;149.036;2023-03-14T01:17:09;6.18;;;1.70;;
39694;SDS011;25367;-35.352;149.036;2023-03-14T01:19:39;5.35;;;1.70;;
39694;SDS011;25367;-35.352;149.036;2023-03-14T01:22:10;7.13;;;1.90;;
39694;SDS011;25367;-35.352;149.036;2023-03-14T01:24:43;10.80;;;2.05;;
39694;SDS011;25367;-35.352;149.036;2023-03-14T01:27:13;14.70;;;2.42;;
39694;SDS011;25367;-35.352;149.036;2023-03-14T01:29:44;14.30;;;2.55;;
39694;SDS011;25367;-35.352;149.036;2023-03-14T01:32:14;8.75;;;1.70;;
39694;SDS011;25367;-35.352;149.036;2023-03-14T01:34:44;12.32;;;1.80;;
39694;SDS011;25367;-35.352;149.036;2023-03-14T01:37:13;8.48;;;1.50;;
39694;SDS011;25367;-35.352;149.036;2023-03-14T01:39:46;6.45;;;1.17;;
39694;SDS011;25367;-35.352;149.036;2023-03-14T01:42:16;7.90;;;2.78;;
39694;SDS011;25367;-35.352;149.036;2023-03-14T01:44:48;5.45;;;1.40;;
39694;SDS011;25367;-35.352;149.036;2023-03-14T01:47:19;6.67;;;1.63;;
39694;SDS011;25367;-35.352;149.036;2023-03-14T01:49:51;9.02;;;1.42;;
39694;SDS011;25367;-35.352;149.036;2023-03-14T01:52:26;9.32;;;1.85;;
39694;SDS011;25367;-35.352;149.036;2023-03-14T01:55:03;9.27;;;1.90;;
39694;SDS011;25367;-35.352;149.036;2023-03-14T01:57:37;4.63;;;1.30;;
39694;SDS011;25367;-35.352;149.036;2023-03-14T02:00:09;5.82;;;1.27;;
39694;SDS011;25367;-35.352;149.036;2023-03-14T02:02:45;7.50;;;1.42;;
39694;SDS011;25367;-35.352;149.036;2023-03-14T02:05:19;8.30;;;2.05;;
39694;SDS011;25367;-35.352;149.036;2023-03-14T02:08:04;10.30;;;2.30;;
39694;SDS011;25367;-35.352;149.036;2023-03-14T02:10:45;8.93;;;1.65;;
39694;SDS011;25367;-35.352;149.036;2023-03-14T02:13:17;10.75;;;2.25;;
39694;SDS011;25367;-35.352;149.036;2023-03-14T02:15:57;8.38;;;1.45;;
39694;SDS011;25367;-35.352;149.036;2023-03-14T02:18:42;7.63;;;1.65;;
39694;SDS011;25367;-35.352;149.036;2023-03-14T02:21:33;8.45;;;1.70;;
39694;SDS011;25367;-35.352;149.036;2023-03-14T02:24:11;5.88;;;1.70;;
39694;SDS011;25367;-35.352;149.036;2023-03-14T02:27:09;4.80;;;1.70;;
39694;SDS011;25367;-35.352;149.036;2023-03-14T02:29:48;4.05;;;1.40;;
39694;SDS011;25367;-35.352;149.036;2023-03-14T02:32:20;6.30;;;1.90;;
39694;SDS011;25367;-35.352;149.036;2023-03-14T02:34:52;5.00;;;1.48;;
39694;SDS011;25367;-35.352;149.036;2023-03-14T02:37:25;7.10;;;2.30;;
39694;SDS011;25367;-35.352;149.036;2023-03-14T02:39:59;4.68;;;1.20;;
39694;SDS011;25367;-35.352;149.036;2023-03-14T02:42:33;4.78;;;1.50;;
39694;SDS011;25367;-35.352;149.036;2023-03-14T02:48:06;6.13;;;1.95;;
39694;SDS011;25367;-35.352;149.036;2023-03-14T02:50:40;10.57;;;1.80;;
39694;SDS011;25367;-35.352;149.036;2023-03-14T02:53:12;12.70;;;2.40;;
39694;SDS011;25367;-35.352;149.036;2023-03-14T02:55:45;11.73;;;1.90;;
39694;SDS011;25367;-35.352;149.036;2023-03-14T03:00:53;7.20;;;1.23;;
39694;SDS011;25367;-35.352;149.036;2023-03-14T03:03:24;30.52;;;2.95;;
39694;SDS011;25367;-35.352;149.036;2023-03-14T03:05:54;21.90;;;3.05;;
39694;SDS011;25367;-35.352;149.036;2023-03-14T03:08:24;17.67;;;3.13;;
39694;SDS011;25367;-35.352;149.036;2023-03-14T03:10:55;13.15;;;2.03;;
39694;SDS011;25367;-35.352;149.036;2023-03-14T03:13:29;16.30;;;3.13;;
39694;SDS011;25367;-35.352;149.036;2023-03-14T03:16:00;15.88;;;2.55;;
39694;SDS011;25367;-35.352;149.036;2023-03-14T03:18:30;8.80;;;2.08;;
39694;SDS011;25367;-35.352;149.036;2023-03-14T03:21:00;8.10;;;1.77;;
39694;SDS011;25367;-35.352;149.036;2023-03-14T03:23:31;6.20;;;1.90;;
39694;SDS011;25367;-35.352;149.036;2023-03-14T03:26:00;6.70;;;1.70;;
39694;SDS011;25367;-35.352;149.036;2023-03-14T03:28:32;15.80;;;2.10;;
39694;SDS011;25367;-35.352;149.036;2023-03-14T03:31:06;5.72;;;1.20;;
39694;SDS011;25367;-35.352;149.036;2023-03-14T03:33:37;5.45;;;1.60;;
39694;SDS011;25367;-35.352;149.036;2023-03-14T03:36:08;9.27;;;1.77;;
39694;SDS011;25367;-35.352;149.036;2023-03-14T03:38:40;9.25;;;1.88;;
39694;SDS011;25367;-35.352;149.036;2023-03-14T03:41:10;7.60;;;1.50;;
39694;SDS011;25367;-35.352;149.036;2023-03-14T03:43:43;6.00;;;1.40;;
39694;SDS011;25367;-35.352;149.036;2023-03-14T03:46:15;4.63;;;1.20;;
39694;SDS011;25367;-35.352;149.036;2023-03-14T03:48:45;7.32;;;1.60;;
39694;SDS011;25367;-35.352;149.036;2023-03-14T03:51:14;5.22;;;2.13;;
39694;SDS011;25367;-35.352;149.036;2023-03-14T03:53:45;4.15;;;1.20;;
39694;SDS011;25367;-35.352;149.036;2023-03-14T03:56:18;5.10;;;1.17;;
39694;SDS011;25367;-35.352;149.036;2023-03-14T03:58:51;3.63;;;1.27;;
39694;SDS011;25367;-35.352;149.036;2023-03-14T04:01:21;5.97;;;1.55;;
39694;SDS011;25367;-35.352;149.036;2023-03-14T04:03:53;4.63;;;1.45;;
39694;SDS011;25367;-35.352;149.036;2023-03-14T04:06:22;4.45;;;1.17;;
39694;SDS011;25367;-35.352;149.036;2023-03-14T04:08:55;4.87;;;1.37;;
39694;SDS011;25367;-35.352;149.036;2023-03-14T04:11:45;4.82;;;1.48;;
39694;SDS011;25367;-35.352;149.036;2023-03-14T04:14:23;5.70;;;1.25;;
39694;SDS011;25367;-35.352;149.036;2023-03-14T04:17:07;10.25;;;1.50;;
39694;SDS011;25367;-35.352;149.036;2023-03-14T04:19:37;9.93;;;1.40;;
39694;SDS011;25367;-35.352;149.036;2023-03-14T04:22:07;3.67;;;1.00;;
39694;SDS011;25367;-35.352;149.036;2023-03-14T04:24:46;6.65;;;0.90;;
39694;SDS011;25367;-35.352;149.036;2023-03-14T04:27:16;4.85;;;1.25;;
39694;SDS011;25367;-35.352;149.036;2023-03-14T04:29:49;3.15;;;0.95;;
39694;SDS011;25367;-35.352;149.036;2023-03-14T04:32:27;6.28;;;1.40;;
39694;SDS011;25367;-35.352;149.036;2023-03-14T04:34:58;3.78;;;1.17;;
39694;SDS011;25367;-35.352;149.036;2023-03-14T04:37:29;2.35;;;0.90;;
39694;SDS011;25367;-35.352;149.036;2023-03-14T04:39:59;3.78;;;1.00;;
39694;SDS011;25367;-35.352;149.036;2023-03-14T04:42:33;4.20;;;1.35;;
39694;SDS011;25367;-35.352;149.036;2023-03-14T04:45:06;3.63;;;0.98;;
39694;SDS011;25367;-35.352;149.036;2023-03-14T04:47:39;9.63;;;1.35;;
39694;SDS011;25367;-35.352;149.036;2023-03-14T04:50:13;7.22;;;1.38;;
39694;SDS011;25367;-35.352;149.036;2023-03-14T04:52:43;5.53;;;1.30;;
39694;SDS011;25367;-35.352;149.036;2023-03-14T04:55:13;5.93;;;1.02;;
39694;SDS011;25367;-35.352;149.036;2023-03-14T04:57:44;6.38;;;1.45;;
39694;SDS011;25367;-35.352;149.036;2023-03-14T05:00:17;7.35;;;1.23;;
39694;SDS011;25367;-35.352;149.036;2023-03-14T05:02:54;10.52;;;1.10;;
39694;SDS011;25367;-35.352;149.036;2023-03-14T05:05:44;6.07;;;0.90;;
39694;SDS011;25367;-35.352;149.036;2023-03-14T05:08:40;4.88;;;1.35;;
39694;SDS011;25367;-35.352;149.036;2023-03-14T05:11:28;6.95;;;1.60;;
39694;SDS011;25367;-35.352;149.036;2023-03-14T05:14:24;3.38;;;0.80;;
39694;SDS011;25367;-35.352;149.036;2023-03-14T05:17:11;15.10;;;2.00;;
39694;SDS011;25367;-35.352;149.036;2023-03-14T05:20:07;3.33;;;1.00;;
39694;SDS011;25367;-35.352;149.036;2023-03-14T05:22:58;5.50;;;1.17;;
39694;SDS011;25367;-35.352;149.036;2023-03-14T05:25:45;34.67;;;2.03;;
39694;SDS011;25367;-35.352;149.036;2023-03-14T05:28:34;11.45;;;1.80;;
39694;SDS011;25367;-35.352;149.036;2023-03-14T05:31:16;5.80;;;1.03;;
39694;SDS011;25367;-35.352;149.036;2023-03-14T05:33:57;12.95;;;1.58;;
39694;SDS011;25367;-35.352;149.036;2023-03-14T05:36:36;3.67;;;0.80;;
39694;SDS011;25367;-35.352;149.036;2023-03-14T05:39:24;6.20;;;1.13;;
39694;SDS011;25367;-35.352;149.036;2023-03-14T05:42:07;3.22;;;0.80;;
39694;SDS011;25367;-35.352;149.036;2023-03-14T05:44:57;8.15;;;1.10;;
39694;SDS011;25367;-35.352;149.036;2023-03-14T05:48:06;8.25;;;1.00;;
39694;SDS011;25367;-35.352;149.036;2023-03-14T05:50:59;8.23;;;1.02;;
39694;SDS011;25367;-35.352;149.036;2023-03-14T05:53:43;6.47;;;1.13;;
39694;SDS011;25367;-35.352;149.036;2023-03-14T05:56:34;9.82;;;1.10;;
39694;SDS011;25367;-35.352;149.036;2023-03-14T05:59:25;6.32;;;0.77;;
39694;SDS011;25367;-35.352;149.036;2023-03-14T06:02:01;2.70;;;0.73;;
39694;SDS011;25367;-35.352;149.036;2023-03-14T06:04:40;8.80;;;1.05;;
39694;SDS011;25367;-35.352;149.036;2023-03-14T06:07:14;4.70;;;0.80;;
39694;SDS011;25367;-35.352;149.036;2023-03-14T06:09:45;4.13;;;1.10;;
39694;SDS011;25367;-35.352;149.036;2023-03-14T06:12:18;10.65;;;1.02;;
39694;SDS011;25367;-35.352;149.036;2023-03-14T06:14:48;13.63;;;1.52;;
39694;SDS011;25367;-35.352;149.036;2023-03-14T06:17:18;28.85;;;2.75;;
39694;SDS011;25367;-35.352;149.036;2023-03-14T06:22:36;13.73;;;1.63;;
39694;SDS011;25367;-35.352;149.036;2023-03-14T06:25:06;6.93;;;1.23;;
39694;SDS011;25367;-35.352;149.036;2023-03-14T06:27:37;8.30;;;1.10;;
39694;SDS011;25367;-35.352;149.036;2023-03-14T06:30:08;15.07;;;1.65;;
39694;SDS011;25367;-35.352;149.036;2023-03-14T06:32:39;18.40;;;1.30;;
39694;SDS011;25367;-35.352;149.036;2023-03-14T06:35:13;11.35;;;1.52;;
39694;SDS011;25367;-35.352;149.036;2023-03-14T06:37:48;7.13;;;0.80;;
39694;SDS011;25367;-35.352;149.036;2023-03-14T06:40:19;15.88;;;1.90;;
39694;SDS011;25367;-35.352;149.036;2023-03-14T06:43:04;11.20;;;1.55;;
39694;SDS011;25367;-35.352;149.036;2023-03-14T06:45:34;14.13;;;1.50;;
39694;SDS011;25367;-35.352;149.036;2023-03-14T06:48:05;6.82;;;1.50;;
39694;SDS011;25367;-35.352;149.036;2023-03-14T06:50:40;14.38;;;1.60;;
39694;SDS011;25367;-35.352;149.036;2023-03-14T06:53:13;15.68;;;1.30;;
39694;SDS011;25367;-35.352;149.036;2023-03-14T06:55:44;5.10;;;1.08;;
39694;SDS011;25367;-35.352;149.036;2023-03-14T06:58:17;9.43;;;1.20;;
39694;SDS011;25367;-35.352;149.036;2023-03-14T07:00:47;8.25;;;1.20;;
39694;SDS011;25367;-35.352;149.036;2023-03-14T07:03:22;7.13;;;1.00;;
39694;SDS011;25367;-35.352;149.036;2023-03-14T07:05:55;8.98;;;0.80;;
39694;SDS011;25367;-35.352;149.036;2023-03-14T07:08:27;5.07;;;0.77;;
39694;SDS011;25367;-35.352;149.036;2023-03-14T07:10:57;4.90;;;1.00;;
39694;SDS011;25367;-35.352;149.036;2023-03-14T07:13:27;4.47;;;0.60;;
39694;SDS011;25367;-35.352;149.036;2023-03-14T07:16:03;9.18;;;0.80;;
39694;SDS011;25367;-35.352;149.036;2023-03-14T07:18:34;4.30;;;0.75;;
39694;SDS011;25367;-35.352;149.036;2023-03-14T07:21:05;2.50;;;0.70;;
39694;SDS011;25367;-35.352;149.036;2023-03-14T07:23:39;3.10;;;0.75;;
39694;SDS011;25367;-35.352;149.036;2023-03-14T07:26:09;3.72;;;0.50;;
39694;SDS011;25367;-35.352;149.036;2023-03-14T07:28:45;3.30;;;0.88;;
39694;SDS011;25367;-35.352;149.036;2023-03-14T07:31:18;7.65;;;0.75;;
39694;SDS011;25367;-35.352;149.036;2023-03-14T07:33:48;13.30;;;0.50;;
39694;SDS011;25367;-35.352;149.036;2023-03-14T07:36:20;2.50;;;0.57;;
39694;SDS011;25367;-35.352;149.036;2023-03-14T07:38:52;7.75;;;1.05;;
39694;SDS011;25367;-35.352;149.036;2023-03-14T07:41:46;2.70;;;0.35;;
39694;SDS011;25367;-35.352;149.036;2023-03-14T07:44:42;3.00;;;0.65;;
39694;SDS011;25367;-35.352;149.036;2023-03-14T07:47:12;3.70;;;0.90;;
39694;SDS011;25367;-35.352;149.036;2023-03-14T07:49:42;5.32;;;0.50;;
39694;SDS011;25367;-35.352;149.036;2023-03-14T07:52:12;3.00;;;0.40;;
39694;SDS011;25367;-35.352;149.036;2023-03-14T07:54:44;6.20;;;0.50;;
39694;SDS011;25367;-35.352;149.036;2023-03-14T07:57:14;1.33;;;0.38;;
39694;SDS011;25367;-35.352;149.036;2023-03-14T07:59:44;11.38;;;0.70;;
39694;SDS011;25367;-35.352;149.036;2023-03-14T08:02:14;4.47;;;0.68;;
39694;SDS011;25367;-35.352;149.036;2023-03-14T08:04:44;2.88;;;0.77;;
39694;SDS011;25367;-35.352;149.036;2023-03-14T08:07:13;3.22;;;0.75;;
39694;SDS011;25367;-35.352;149.036;2023-03-14T08:09:46;2.63;;;0.85;;
39694;SDS011;25367;-35.352;149.036;2023-03-14T08:12:16;1.23;;;0.30;;
39694;SDS011;25367;-35.352;149.036;2023-03-14T08:14:46;10.15;;;1.13;;
39694;SDS011;25367;-35.352;149.036;2023-03-14T08:17:16;6.07;;;1.15;;
39694;SDS011;25367;-35.352;149.036;2023-03-14T08:19:46;2.05;;;0.50;;
39694;SDS011;25367;-35.352;149.036;2023-03-14T08:22:16;8.13;;;0.90;;
39694;SDS011;25367;-35.352;149.036;2023-03-14T08:24:49;2.58;;;0.40;;
39694;SDS011;25367;-35.352;149.036;2023-03-14T08:27:19;1.95;;;0.38;;
39694;SDS011;25367;-35.352;149.036;2023-03-14T08:29:49;5.63;;;0.55;;
39694;SDS011;25367;-35.352;149.036;2023-03-14T08:32:19;6.28;;;0.70;;
39694;SDS011;25367;-35.352;149.036;2023-03-14T08:34:49;1.35;;;0.60;;
39694;SDS011;25367;-35.352;149.036;2023-03-14T08:37:19;6.03;;;0.55;;
39694;SDS011;25367;-35.352;149.036;2023-03-14T08:39:52;5.43;;;0.55;;
39694;SDS011;25367;-35.352;149.036;2023-03-14T08:42:26;3.50;;;0.55;;
39694;SDS011;25367;-35.352;149.036;2023-03-14T08:44:56;5.07;;;0.75;;
39694;SDS011;25367;-35.352;149.036;2023-03-14T08:47:26;2.55;;;0.60;;
39694;SDS011;25367;-35.352;149.036;2023-03-14T08:49:56;3.65;;;0.40;;
39694;SDS011;25367;-35.352;149.036;2023-03-14T08:52:26;3.50;;;0.73;;
39694;SDS011;25367;-35.352;149.036;2023-03-14T08:54:59;1.02;;;0.40;;
39694;SDS011;25367;-35.352;149.036;2023-03-14T08:57:29;1.75;;;0.22;;
39694;SDS011;25367;-35.352;149.036;2023-03-14T08:59:59;4.18;;;0.50;;
39694;SDS011;25367;-35.352;149.036;2023-03-14T09:02:30;1.70;;;0.50;;
39694;SDS011;25367;-35.352;149.036;2023-03-14T09:05:00;4.90;;;0.65;;
39694;SDS011;25367;-35.352;149.036;2023-03-14T09:07:30;0.82;;;0.30;;
39694;SDS011;25367;-35.352;149.036;2023-03-14T09:10:04;1.05;;;0.20;;
39694;SDS011;25367;-35.352;149.036;2023-03-14T09:12:35;2.35;;;0.60;;
39694;SDS011;25367;-35.352;149.036;2023-03-14T09:15:04;6.88;;;0.90;;
39694;SDS011;25367;-35.352;149.036;2023-03-14T09:17:35;3.00;;;0.32;;
39694;SDS011;25367;-35.352;149.036;2023-03-14T09:20:05;15.23;;;0.65;;
39694;SDS011;25367;-35.352;149.036;2023-03-14T09:22:36;19.02;;;0.98;;
39694;SDS011;25367;-35.352;149.036;2023-03-14T09:25:08;11.55;;;0.70;;
39694;SDS011;25367;-35.352;149.036;2023-03-14T09:27:39;3.92;;;0.63;;
39694;SDS011;25367;-35.352;149.036;2023-03-14T09:30:09;2.42;;;0.45;;
39694;SDS011;25367;-35.352;149.036;2023-03-14T09:32:40;4.15;;;0.45;;
39694;SDS011;25367;-35.352;149.036;2023-03-14T09:35:10;4.55;;;0.98;;
39694;SDS011;25367;-35.352;149.036;2023-03-14T09:37:40;9.38;;;0.70;;
39694;SDS011;25367;-35.352;149.036;2023-03-14T09:40:16;14.20;;;0.82;;
39694;SDS011;25367;-35.352;149.036;2023-03-14T09:42:47;14.45;;;0.70;;
39694;SDS011;25367;-35.352;149.036;2023-03-14T09:45:19;2.92;;;0.40;;
39694;SDS011;25367;-35.352;149.036;2023-03-14T09:47:53;6.13;;;0.70;;
39694;SDS011;25367;-35.352;149.036;2023-03-14T09:50:25;5.20;;;0.45;;
39694;SDS011;25367;-35.352;149.036;2023-03-14T09:53:00;4.32;;;0.60;;
39694;SDS011;25367;-35.352;149.036;2023-03-14T09:55:37;5.40;;;0.47;;
39694;SDS011;25367;-35.352;149.036;2023-03-14T09:58:10;6.47;;;0.88;;
39694;SDS011;25367;-35.352;149.036;2023-03-14T10:00:42;8.27;;;0.68;;
39694;SDS011;25367;-35.352;149.036;2023-03-14T10:06:01;4.68;;;0.70;;
39694;SDS011;25367;-35.352;149.036;2023-03-14T10:08:39;11.65;;;0.50;;
39694;SDS011;25367;-35.352;149.036;2023-03-14T10:11:14;2.57;;;0.30;;
39694;SDS011;25367;-35.352;149.036;2023-03-14T10:13:49;7.75;;;0.47;;
39694;SDS011;25367;-35.352;149.036;2023-03-14T10:16:31;0.15;;;0.10;;
39694;SDS011;25367;-35.352;149.036;2023-03-14T10:19:03;0.65;;;0.32;;
39694;SDS011;25367;-35.352;149.036;2023-03-14T10:21:38;1.55;;;0.38;;
39694;SDS011;25367;-35.352;149.036;2023-03-14T10:24:16;2.42;;;0.40;;
39694;SDS011;25367;-35.352;149.036;2023-03-14T10:26:51;2.00;;;0.45;;
39694;SDS011;25367;-35.352;149.036;2023-03-14T10:29:22;2.08;;;0.25;;
39694;SDS011;25367;-35.352;149.036;2023-03-14T10:31:52;2.17;;;0.50;;
39694;SDS011;25367;-35.352;149.036;2023-03-14T10:34:24;1.77;;;0.40;;
39694;SDS011;25367;-35.352;149.036;2023-03-14T10:36:56;3.37;;;0.27;;
39694;SDS011;25367;-35.352;149.036;2023-03-14T10:39:28;0.82;;;0.30;;
39694;SDS011;25367;-35.352;149.036;2023-03-14T10:42:11;3.85;;;0.40;;
39694;SDS011;25367;-35.352;149.036;2023-03-14T10:44:48;3.40;;;0.28;;
39694;SDS011;25367;-35.352;149.036;2023-03-14T10:47:24;1.80;;;0.30;;
39694;SDS011;25367;-35.352;149.036;2023-03-14T10:49:55;0.52;;;0.15;;
39694;SDS011;25367;-35.352;149.036;2023-03-14T10:52:26;0.88;;;0.35;;
39694;SDS011;25367;-35.352;149.036;2023-03-14T10:54:57;0.43;;;0.25;;
39694;SDS011;25367;-35.352;149.036;2023-03-14T10:57:33;2.40;;;0.20;;
39694;SDS011;25367;-35.352;149.036;2023-03-14T11:00:09;0.32;;;0.20;;
39694;SDS011;25367;-35.352;149.036;2023-03-14T11:02:47;1.23;;;0.30;;
39694;SDS011;25367;-35.352;149.036;2023-03-14T11:05:29;0.90;;;0.30;;
39694;SDS011;25367;-35.352;149.036;2023-03-14T11:08:07;2.13;;;0.30;;
39694;SDS011;25367;-35.352;149.036;2023-03-14T11:10:42;0.80;;;0.20;;
39694;SDS011;25367;-35.352;149.036;2023-03-14T11:13:19;0.80;;;0.20;;
39694;SDS011;25367;-35.352;149.036;2023-03-14T11:15:59;1.35;;;0.30;;
39694;SDS011;25367;-35.352;149.036;2023-03-14T11:21:55;0.20;;;0.10;;
39694;SDS011;25367;-35.352;149.036;2023-03-14T11:24:31;1.95;;;0.47;;
39694;SDS011;25367;-35.352;149.036;2023-03-14T11:27:11;2.40;;;0.20;;
39694;SDS011;25367;-35.352;149.036;2023-03-14T11:29:50;2.03;;;0.38;;
39694;SDS011;25367;-35.352;149.036;2023-03-14T11:32:35;3.05;;;0.60;;
39694;SDS011;25367;-35.352;149.036;2023-03-14T11:35:13;0.88;;;0.30;;
39694;SDS011;25367;-35.352;149.036;2023-03-14T11:37:52;3.03;;;0.73;;
39694;SDS011;25367;-35.352;149.036;2023-03-14T11:40:27;4.63;;;0.60;;
39694;SDS011;25367;-35.352;149.036;2023-03-14T11:43:04;1.27;;;0.45;;
39694;SDS011;25367;-35.352;149.036;2023-03-14T11:45:41;2.63;;;0.63;;
39694;SDS011;25367;-35.352;149.036;2023-03-14T11:48:17;3.20;;;0.85;;
39694;SDS011;25367;-35.352;149.036;2023-03-14T11:50:55;2.40;;;0.55;;
39694;SDS011;25367;-35.352;149.036;2023-03-14T11:53:33;4.70;;;0.98;;
39694;SDS011;25367;-35.352;149.036;2023-03-14T11:56:10;2.28;;;0.50;;
39694;SDS011;25367;-35.352;149.036;2023-03-14T11:58:50;1.90;;;0.50;;
39694;SDS011;25367;-35.352;149.036;2023-03-14T12:01:27;4.90;;;1.00;;
39694;SDS011;25367;-35.352;149.036;2023-03-14T12:04:06;1.25;;;0.40;;
39694;SDS011;25367;-35.352;149.036;2023-03-14T12:06:44;4.13;;;0.60;;
39694;SDS011;25367;-35.352;149.036;2023-03-14T12:09:17;2.28;;;0.77;;
39694;SDS011;25367;-35.352;149.036;2023-03-14T12:11:49;2.38;;;0.50;;
39694;SDS011;25367;-35.352;149.036;2023-03-14T12:14:21;3.38;;;0.60;;
39694;SDS011;25367;-35.352;149.036;2023-03-14T12:17:03;5.10;;;0.90;;
39694;SDS011;25367;-35.352;149.036;2023-03-14T12:19:35;2.15;;;0.50;;
39694;SDS011;25367;-35.352;149.036;2023-03-14T12:22:16;2.50;;;0.70;;
39694;SDS011;25367;-35.352;149.036;2023-03-14T12:24:59;2.08;;;0.40;;
39694;SDS011;25367;-35.352;149.036;2023-03-14T12:27:40;5.18;;;0.82;;
39694;SDS011;25367;-35.352;149.036;2023-03-14T12:30:21;4.93;;;0.95;;
39694;SDS011;25367;-35.352;149.036;2023-03-14T12:33:18;2.45;;;0.55;;
39694;SDS011;25367;-35.352;149.036;2023-03-14T12:35:59;5.07;;;0.70;;
39694;SDS011;25367;-35.352;149.036;2023-03-14T12:41:15;1.30;;;0.63;;
39694;SDS011;25367;-35.352;149.036;2023-03-14T12:43:51;2.13;;;0.73;;
39694;SDS011;25367;-35.352;149.036;2023-03-14T12:46:22;4.60;;;0.90;;
39694;SDS011;25367;-35.352;149.036;2023-03-14T12:49:03;1.93;;;0.50;;
39694;SDS011;25367;-35.352;149.036;2023-03-14T12:51:37;3.00;;;0.80;;
39694;SDS011;25367;-35.352;149.036;2023-03-14T12:54:14;1.60;;;0.63;;
39694;SDS011;25367;-35.352;149.036;2023-03-14T12:57:08;1.70;;;0.50;;
39694;SDS011;25367;-35.352;149.036;2023-03-14T12:59:49;2.05;;;0.60;;
39694;SDS011;25367;-35.352;149.036;2023-03-14T13:02:26;1.83;;;0.68;;
39694;SDS011;25367;-35.352;149.036;2023-03-14T13:05:09;2.78;;;0.50;;
39694;SDS011;25367;-35.352;149.036;2023-03-14T13:10:38;3.50;;;0.65;;
39694;SDS011;25367;-35.352;149.036;2023-03-14T13:13:15;1.58;;;0.63;;
39694;SDS011;25367;-35.352;149.036;2023-03-14T13:15:48;2.80;;;0.77;;
39694;SDS011;25367;-35.352;149.036;2023-03-14T13:18:26;0.95;;;0.38;;
39694;SDS011;25367;-35.352;149.036;2023-03-14T13:21:02;1.38;;;0.40;;
39694;SDS011;25367;-35.352;149.036;2023-03-14T13:23:37;2.63;;;0.68;;
39694;SDS011;25367;-35.352;149.036;2023-03-14T13:26:10;1.98;;;0.68;;
39694;SDS011;25367;-35.352;149.036;2023-03-14T13:28:41;3.08;;;0.82;;
39694;SDS011;25367;-35.352;149.036;2023-03-14T13:31:17;1.23;;;0.50;;
39694;SDS011;25367;-35.352;149.036;2023-03-14T13:33:59;3.67;;;0.73;;
39694;SDS011;25367;-35.352;149.036;2023-03-14T13:36:35;2.58;;;0.55;;
39694;SDS011;25367;-35.352;149.036;2023-03-14T13:41:38;2.47;;;0.43;;
39694;SDS011;25367;-35.352;149.036;2023-03-14T13:44:09;2.72;;;0.82;;
39694;SDS011;25367;-35.352;149.036;2023-03-14T13:46:44;2.22;;;0.40;;
39694;SDS011;25367;-35.352;149.036;2023-03-14T13:49:17;1.95;;;0.32;;
39694;SDS011;25367;-35.352;149.036;2023-03-14T13:51:55;2.30;;;0.70;;
39694;SDS011;25367;-35.352;149.036;2023-03-14T13:54:25;2.88;;;0.60;;
39694;SDS011;25367;-35.352;149.036;2023-03-14T13:57:02;2.17;;;0.50;;
39694;SDS011;25367;-35.352;149.036;2023-03-14T13:59:33;1.33;;;0.60;;
39694;SDS011;25367;-35.352;149.036;2023-03-14T14:02:04;2.40;;;0.47;;
39694;SDS011;25367;-35.352;149.036;2023-03-14T14:04:40;1.25;;;0.60;;
39694;SDS011;25367;-35.352;149.036;2023-03-14T14:07:15;5.20;;;0.93;;
39694;SDS011;25367;-35.352;149.036;2023-03-14T14:09:46;1.00;;;0.35;;
39694;SDS011;25367;-35.352;149.036;2023-03-14T14:12:18;2.30;;;0.52;;
39694;SDS011;25367;-35.352;149.036;2023-03-14T14:14:52;3.08;;;0.60;;
39694;SDS011;25367;-35.352;149.036;2023-03-14T14:19:54;1.77;;;0.47;;
39694;SDS011;25367;-35.352;149.036;2023-03-14T14:22:28;3.47;;;0.45;;
39694;SDS011;25367;-35.352;149.036;2023-03-14T14:24:59;1.02;;;0.50;;
39694;SDS011;25367;-35.352;149.036;2023-03-14T14:27:33;0.52;;;0.28;;
39694;SDS011;25367;-35.352;149.036;2023-03-14T14:30:05;1.45;;;0.52;;
39694;SDS011;25367;-35.352;149.036;2023-03-14T14:32:52;1.65;;;0.50;;
39694;SDS011;25367;-35.352;149.036;2023-03-14T14:35:34;2.47;;;0.55;;
39694;SDS011;25367;-35.352;149.036;2023-03-14T14:38:12;0.75;;;0.43;;
39694;SDS011;25367;-35.352;149.036;2023-03-14T14:40:47;0.68;;;0.40;;
39694;SDS011;25367;-35.352;149.036;2023-03-14T14:43:19;1.40;;;0.47;;
39694;SDS011;25367;-35.352;149.036;2023-03-14T14:45:51;2.28;;;0.70;;
39694;SDS011;25367;-35.352;149.036;2023-03-14T14:48:22;0.80;;;0.35;;
39694;SDS011;25367;-35.352;149.036;2023-03-14T14:50:57;1.83;;;0.80;;
39694;SDS011;25367;-35.352;149.036;2023-03-14T14:53:35;2.30;;;0.30;;
39694;SDS011;25367;-35.352;149.036;2023-03-14T14:56:07;0.30;;;0.20;;
39694;SDS011;25367;-35.352;149.036;2023-03-14T14:58:44;1.00;;;0.45;;
39694;SDS011;25367;-35.352;149.036;2023-03-14T15:01:24;1.33;;;0.60;;
39694;SDS011;25367;-35.352;149.036;2023-03-14T15:03:59;1.45;;;0.50;;
39694;SDS011;25367;-35.352;149.036;2023-03-14T15:06:29;1.10;;;0.43;;
39694;SDS011;25367;-35.352;149.036;2023-03-14T15:09:04;1.67;;;0.77;;
39694;SDS011;25367;-35.352;149.036;2023-03-14T15:11:37;0.98;;;0.50;;
39694;SDS011;25367;-35.352;149.036;2023-03-14T15:14:07;0.45;;;0.38;;
39694;SDS011;25367;-35.352;149.036;2023-03-14T15:16:37;1.33;;;0.65;;